Hauptseite
METAR-TAF:

METAR-TAF

Flughäfen :

Flughafen Peking

Peking, China

Breite: 39-56N, Länge: 116-17E, Höhe: 55 m

Beobachtung

Neuester Wetterbericht von vor 26 Minuten, um 05:30 UTC
Wind 4 kt aus unterschiedlichen Richtungen
Temperatur 10°C
Luftfeuchtigkeit 23%
Luftdruck 1020 hPa
Sichtweite 10 km oder mehr
keine Wolken unter 1500 m und keine Kumulonimbus oder Gewitterwolken

METAR: ZBAA 190530Z VRB02MPS CAVOK 10/M10 Q1020 NOSIG

Zeit: 13:56 (05:56 UTC)

Prognose

Neuester Wetterbericht von vor 2 Stunden und 26 Minuten, um 03:30 UTC
Gültige Prognose vom 19 um 06 UTC bis 20 um 06 UTC
Wind 8 kt aus Süd/Südost
Sichtweite 10 km oder mehr
keine Wolken unter 1500 m und keine Kumulonimbus oder Gewitterwolken

TAF: ZBAA 190330Z 1906/2006 16004MPS CAVOK TX10/1907Z TNM03/21Z

Wetterbeobachtungen und Prognosen von mehr als 4000 Flughäfen (METAR und TAF Bericht).

Die verfügbaren Stationen werden durch gelbe und rote Markierungen auf der Karte dargestellt.

Führen Sie die Maus auf sie, um den Namen der Station zu sehen.

Darauf klicken, um die Beobachtung von Wetterbeobachtungen und Prognosen zu sehen.

Um die Karte zu ändern : klicken Sie auf den grünen Tasten mit einem schwarzen Kreuz Zum Vergrößern, auf den grünen Button mit einem Gedankenstrich zu verkleinern, oder auf die grünen Pfeile für benachbarte Karten.


METAR-TAF: